createdAt,value
2022-10-14T00:01:07.793Z,31.98
2022-10-14T00:03:35.481Z,33.53
2022-10-14T00:06:07.883Z,38.38
2022-10-14T00:08:34.822Z,30.48
2022-10-14T00:11:13.582Z,38.28
2022-10-14T00:13:40.886Z,34.10
2022-10-14T00:16:19.314Z,40.97
2022-10-14T00:18:46.855Z,32.38
2022-10-14T00:21:13.774Z,35.78
2022-10-14T00:23:40.950Z,35.13
2022-10-14T00:26:08.331Z,34.60
2022-10-14T00:28:35.206Z,32.72
2022-10-14T00:31:02.734Z,30.13
2022-10-14T00:33:29.871Z,36.55
2022-10-14T00:36:05.520Z,32.70
2022-10-14T00:38:33.144Z,35.80
2022-10-14T00:41:00.343Z,36.50
2022-10-14T00:43:29.602Z,34.70
2022-10-14T00:45:56.926Z,34.83
2022-10-14T00:48:26.334Z,33.88
2022-10-14T00:50:56.236Z,36.28
2022-10-14T00:53:23.274Z,40.50
2022-10-14T00:55:50.552Z,33.75
2022-10-14T00:58:17.480Z,35.28
2022-10-14T01:00:44.789Z,34.67
2022-10-14T01:03:20.506Z,37.30
2022-10-14T01:06:10.151Z,35.75
2022-10-14T01:08:39.976Z,36.30
2022-10-14T01:11:25.944Z,38.58
2022-10-14T01:14:24.747Z,39.63
2022-10-14T01:17:04.187Z,36.70
2022-10-14T01:19:52.198Z,35.40
2022-10-14T01:22:31.310Z,36.45
2022-10-14T01:25:16.599Z,38.17
2022-10-14T01:27:43.855Z,37.60
2022-10-14T01:30:20.073Z,37.42
2022-10-14T01:33:07.398Z,34.78
2022-10-14T01:35:53.793Z,44.60
2022-10-14T01:38:32.549Z,41.67
2022-10-14T01:41:25.583Z,38.53
2022-10-14T01:43:55.448Z,38.28
2022-10-14T01:46:25.677Z,35.03
2022-10-14T01:48:58.293Z,44.47
2022-10-14T01:51:36.971Z,33.97
2022-10-14T01:54:09.848Z,34.90
2022-10-14T01:56:40.565Z,43.67
2022-10-14T01:59:10.328Z,40.15
2022-10-14T02:01:37.421Z,37.92
2022-10-14T02:04:15.535Z,40.30
2022-10-14T02:06:46.596Z,32.85
2022-10-14T02:09:36.686Z,42.75
2022-10-14T02:12:22.420Z,36.03
2022-10-14T02:15:16.303Z,34.53
2022-10-14T02:20:27.647Z,37.35
2022-10-14T02:23:26.784Z,29.88
2022-10-14T02:25:54.946Z,33.40
2022-10-14T02:28:24.693Z,39.47
2022-10-14T02:30:57.085Z,33.47
2022-10-14T02:33:28.933Z,37.93
2022-10-14T02:35:56.935Z,38.60
2022-10-14T02:38:25.879Z,36.20
2022-10-14T02:40:53.075Z,34.65
2022-10-14T02:43:20.437Z,35.95
2022-10-14T02:45:47.319Z,39.63
2022-10-14T02:48:14.547Z,38.97
2022-10-14T02:50:42.434Z,36.38
2022-10-14T02:53:14.333Z,38.15
2022-10-14T02:55:41.191Z,34.80
2022-10-14T02:58:08.202Z,35.20
2022-10-14T03:00:35.320Z,41.72
2022-10-14T03:03:02.575Z,40.05
2022-10-14T03:05:29.648Z,33.42
2022-10-14T03:07:56.936Z,35.53
2022-10-14T03:10:24.204Z,33.70
2022-10-14T03:12:51.161Z,39.05
2022-10-14T03:15:18.005Z,35.90
2022-10-14T03:17:45.306Z,37.72
2022-10-14T03:20:12.548Z,33.72
2022-10-14T03:22:39.409Z,44.15
2022-10-14T03:25:06.752Z,37.05
2022-10-14T03:27:33.623Z,40.78
2022-10-14T03:30:00.464Z,40.22
2022-10-14T03:32:27.295Z,34.65
2022-10-14T03:34:54.178Z,41.63
2022-10-14T03:37:21.243Z,38.13
2022-10-14T03:39:48.060Z,40.72
2022-10-14T03:42:15.026Z,39.70
2022-10-14T03:44:42.339Z,43.22
2022-10-14T03:47:09.182Z,41.55
2022-10-14T03:49:36.072Z,37.80
2022-10-14T03:52:03.348Z,39.80
2022-10-14T03:54:30.182Z,38.78
2022-10-14T03:56:57.803Z,43.65
2022-10-14T03:59:25.009Z,47.45
2022-10-14T04:01:52.254Z,39.25
2022-10-14T04:04:19.265Z,42.42
2022-10-14T04:06:46.484Z,52.92
2022-10-14T04:09:13.334Z,57.20
2022-10-14T04:11:40.207Z,49.95
2022-10-14T04:14:07.074Z,45.47
2022-10-14T04:16:33.903Z,44.05
2022-10-14T04:19:00.772Z,47.53
2022-10-14T04:21:28.013Z,48.88
2022-10-14T04:23:55.255Z,46.40
2022-10-14T04:26:22.481Z,49.53
2022-10-14T04:28:49.418Z,48.70
2022-10-14T04:31:16.648Z,60.75
2022-10-14T04:33:43.944Z,54.90
2022-10-14T04:36:11.175Z,67.30
2022-10-14T04:38:38.012Z,68.80
2022-10-14T04:41:04.987Z,81.20
2022-10-14T04:43:31.858Z,94.18
2022-10-14T04:45:58.683Z,69.93
2022-10-14T04:48:25.582Z,119.25
2022-10-14T04:50:52.984Z,104.20
2022-10-14T04:53:22.310Z,151.25
2022-10-14T04:55:49.848Z,91.82
2022-10-14T04:58:17.289Z,145.02
2022-10-14T05:00:44.391Z,111.88
2022-10-14T05:03:11.874Z,118.30
2022-10-14T05:05:38.738Z,68.25
2022-10-14T05:08:06.180Z,95.75
2022-10-14T05:10:33.636Z,97.15
2022-10-14T05:13:01.093Z,110.93
2022-10-14T05:15:27.997Z,152.75
2022-10-14T05:17:54.959Z,83.85
2022-10-14T05:20:22.218Z,150.38
2022-10-14T05:22:49.071Z,108.30
2022-10-14T05:25:16.363Z,118.47
2022-10-14T05:27:43.657Z,115.93
2022-10-14T05:30:11.359Z,109.32
2022-10-14T05:32:38.666Z,158.43
2022-10-14T05:35:05.999Z,112.95
2022-10-14T05:37:33.248Z,184.07
2022-10-14T05:40:00.976Z,73.85
2022-10-14T05:42:28.350Z,146.55
2022-10-14T05:44:55.614Z,136.90
2022-10-14T05:47:22.539Z,225.02
2022-10-14T05:49:49.757Z,79.53
2022-10-14T05:52:16.969Z,103.78
2022-10-14T05:54:43.860Z,151.95
2022-10-14T05:57:10.796Z,95.97
2022-10-14T05:59:38.042Z,157.15
2022-10-14T06:02:05.301Z,169.48
2022-10-14T06:04:32.123Z,137.30
2022-10-14T06:06:59.827Z,141.52
2022-10-14T06:09:26.868Z,143.82
2022-10-14T06:11:53.703Z,104.20
2022-10-14T06:14:20.931Z,115.30
2022-10-14T06:16:51.144Z,197.65
2022-10-14T06:19:18.011Z,266.10
2022-10-14T06:21:45.386Z,163.40
2022-10-14T06:24:12.748Z,80.22
2022-10-14T06:26:40.122Z,177.98
2022-10-14T06:29:07.387Z,159.48
2022-10-14T06:31:34.462Z,150.52
2022-10-14T06:34:05.171Z,101.88
2022-10-14T06:36:32.523Z,148.68
2022-10-14T06:38:59.393Z,141.77
2022-10-14T06:41:27.042Z,77.90
2022-10-14T06:43:54.283Z,114.13
2022-10-14T06:46:21.207Z,55.67
2022-10-14T06:48:50.300Z,86.15
2022-10-14T06:51:18.060Z,181.63
2022-10-14T06:53:45.509Z,164.98
2022-10-14T06:56:12.427Z,98.93
2022-10-14T06:58:39.325Z,86.28
2022-10-14T07:01:07.716Z,69.30
2022-10-14T07:03:36.705Z,100.47
2022-10-14T07:06:07.540Z,91.30
2022-10-14T07:08:35.180Z,87.50
2022-10-14T07:11:02.533Z,87.15
2022-10-14T07:13:29.588Z,112.68
2022-10-14T07:15:56.831Z,42.03
2022-10-14T07:18:23.821Z,66.47
2022-10-14T07:20:50.731Z,82.35
2022-10-14T07:23:17.739Z,66.78
2022-10-14T07:25:45.008Z,92.75
2022-10-14T07:28:11.935Z,81.60
2022-10-14T07:30:38.928Z,53.53
2022-10-14T07:33:05.766Z,59.35
2022-10-14T07:35:32.883Z,93.82
2022-10-14T07:38:00.139Z,61.60
2022-10-14T07:40:27.593Z,97.05
2022-10-14T07:42:54.545Z,48.88
2022-10-14T07:45:21.519Z,46.15
2022-10-14T07:47:50.461Z,36.90
2022-10-14T07:50:17.849Z,74.15
2022-10-14T07:52:45.359Z,50.67
2022-10-14T07:55:12.720Z,41.83
2022-10-14T07:57:39.609Z,30.80
2022-10-14T08:00:07.672Z,30.85
2022-10-14T08:02:34.664Z,28.40
2022-10-14T08:05:25.742Z,50.67
2022-10-14T08:07:48.655Z,221.88
2022-10-14T08:10:16.460Z,32.17
2022-10-14T08:12:43.413Z,31.45
2022-10-14T08:15:10.512Z,30.08
2022-10-14T08:17:37.734Z,41.33
2022-10-14T08:20:04.933Z,28.30
2022-10-14T08:22:31.793Z,27.67
2022-10-14T08:24:58.636Z,30.80
2022-10-14T08:27:26.759Z,28.50
2022-10-14T08:29:54.659Z,25.95
2022-10-14T08:32:23.474Z,25.67
2022-10-14T08:34:50.732Z,23.02
2022-10-14T08:37:18.054Z,26.42
2022-10-14T08:39:44.961Z,28.38
2022-10-14T08:42:30.826Z,26.58
2022-10-14T08:45:03.414Z,22.92
2022-10-14T08:47:37.026Z,26.27
2022-10-14T08:50:25.652Z,25.67
2022-10-14T08:53:00.639Z,28.20
2022-10-14T08:55:33.856Z,27.77
2022-10-14T09:00:33.614Z,24.70
2022-10-14T09:03:06.487Z,23.88
2022-10-14T09:05:33.415Z,24.05
2022-10-14T09:08:00.817Z,25.63
2022-10-14T09:10:36.804Z,25.88
2022-10-14T09:13:16.092Z,32.00
2022-10-14T09:15:46.292Z,61.50
2022-10-14T09:18:24.254Z,29.38
2022-10-14T09:20:53.786Z,26.38
2022-10-14T09:23:25.715Z,25.63
2022-10-14T09:26:11.986Z,22.52
2022-10-14T09:28:43.803Z,25.42
2022-10-14T09:31:14.464Z,25.00
2022-10-14T09:33:43.022Z,25.10
2022-10-14T09:36:21.188Z,28.45
2022-10-14T09:38:53.582Z,29.13
2022-10-14T09:41:30.392Z,25.30
2022-10-14T09:44:25.841Z,26.23
2022-10-14T09:46:57.268Z,25.90
2022-10-14T09:49:46.056Z,25.95
2022-10-14T09:52:26.202Z,26.52
2022-10-14T09:54:58.848Z,29.40
2022-10-14T09:57:27.010Z,32.30
2022-10-14T09:59:58.679Z,29.30
2022-10-14T10:02:36.359Z,30.65
2022-10-14T10:05:24.814Z,24.17
2022-10-14T10:08:01.859Z,25.85
2022-10-14T10:10:32.759Z,30.45
2022-10-14T10:12:59.622Z,25.33
2022-10-14T10:15:26.961Z,30.95
2022-10-14T10:17:53.840Z,32.22
2022-10-14T10:20:28.679Z,32.72
2022-10-14T10:22:57.211Z,35.08
2022-10-14T10:25:26.747Z,38.42
2022-10-14T10:27:56.083Z,45.08
2022-10-14T10:30:28.174Z,44.22
2022-10-14T10:33:34.011Z,41.60
2022-10-14T10:36:29.108Z,42.45
2022-10-14T10:39:38.587Z,38.08
2022-10-14T10:42:28.764Z,34.78
2022-10-14T10:44:58.903Z,36.08
2022-10-14T10:47:31.833Z,37.80
2022-10-14T10:50:30.305Z,38.70
2022-10-14T10:53:29.540Z,38.10
2022-10-14T10:56:05.660Z,40.28
2022-10-14T10:58:50.993Z,208.30
2022-10-14T11:01:55.599Z,39.10
2022-10-14T11:04:32.276Z,38.42
2022-10-14T11:07:28.216Z,44.85
2022-10-14T11:10:33.553Z,30.15
2022-10-14T11:13:13.810Z,35.30
2022-10-14T11:16:15.029Z,36.30
2022-10-14T11:18:45.526Z,32.83
2022-10-14T11:21:24.963Z,31.20
2022-10-14T11:24:05.244Z,26.27
2022-10-14T11:26:47.142Z,20.75
2022-10-14T11:29:16.170Z,23.83
2022-10-14T11:32:00.003Z,24.63
2022-10-14T11:34:48.042Z,26.48
2022-10-14T11:37:45.500Z,20.63
2022-10-14T11:40:27.614Z,22.40
2022-10-14T11:42:54.798Z,23.85
2022-10-14T11:45:39.342Z,26.75
2022-10-14T11:48:22.398Z,19.83
2022-10-14T11:50:56.336Z,24.63
2022-10-14T11:56:29.443Z,23.90
2022-10-14T11:59:02.519Z,25.48
2022-10-14T12:04:18.733Z,22.45
2022-10-14T12:06:55.838Z,24.05
2022-10-14T12:09:30.566Z,26.38
2022-10-14T12:12:06.093Z,25.70
2022-10-14T12:14:34.106Z,21.52
2022-10-14T12:17:05.978Z,21.17
2022-10-14T12:19:33.410Z,22.50
2022-10-14T12:22:14.056Z,22.40
2022-10-14T12:24:47.609Z,23.13
2022-10-14T12:27:15.671Z,25.13
2022-10-14T12:29:45.532Z,24.05
2022-10-14T12:32:20.434Z,25.83
2022-10-14T12:34:50.248Z,28.83
2022-10-14T12:37:43.058Z,26.55
2022-10-14T12:40:12.920Z,25.70
2022-10-14T12:42:58.853Z,25.80
2022-10-14T12:45:31.648Z,26.58
2022-10-14T12:48:21.624Z,35.40
2022-10-14T12:50:51.716Z,23.23
2022-10-14T12:53:29.473Z,28.13
2022-10-14T12:55:59.571Z,32.88
2022-10-14T12:58:39.469Z,27.65
2022-10-14T13:01:16.906Z,27.83
2022-10-14T13:03:55.348Z,106.50
2022-10-14T13:06:32.029Z,32.15
2022-10-14T13:09:15.214Z,26.67
2022-10-14T13:12:06.074Z,27.67
2022-10-14T13:14:53.942Z,26.25
2022-10-14T13:17:42.217Z,27.23
2022-10-14T13:20:34.599Z,27.05
2022-10-14T13:23:19.686Z,29.55
2022-10-14T13:25:51.125Z,26.65
2022-10-14T13:28:50.079Z,27.98
2022-10-14T13:31:26.787Z,30.23
2022-10-14T13:34:05.012Z,30.90
2022-10-14T13:36:40.472Z,27.75
2022-10-14T13:39:10.341Z,30.48
2022-10-14T13:41:38.014Z,43.00
2022-10-14T13:44:05.730Z,37.63
2022-10-14T13:46:44.251Z,34.53
2022-10-14T13:49:18.264Z,31.25
2022-10-14T13:51:55.087Z,36.78
2022-10-14T13:54:26.467Z,36.58
2022-10-14T14:02:44.157Z,39.05
2022-10-14T14:05:16.308Z,39.20
2022-10-14T14:08:30.056Z,33.20
2022-10-14T14:10:32.339Z,36.08
2022-10-14T14:13:04.417Z,38.13
2022-10-14T14:15:31.333Z,34.88
2022-10-14T14:17:58.597Z,38.75
2022-10-14T14:20:29.317Z,38.72
2022-10-14T14:22:58.695Z,34.28
2022-10-14T14:25:46.769Z,37.03
2022-10-14T14:28:19.638Z,39.88
2022-10-14T14:30:54.999Z,37.58
2022-10-14T14:33:32.202Z,39.75
2022-10-14T14:36:02.754Z,34.15
2022-10-14T14:38:37.464Z,35.13
2022-10-14T14:41:25.215Z,33.03
2022-10-14T14:44:24.142Z,39.60
2022-10-14T14:46:45.381Z,42.22
2022-10-14T14:49:17.060Z,35.92
2022-10-14T14:51:44.603Z,43.58
2022-10-14T14:54:20.037Z,41.05
2022-10-14T14:57:00.775Z,47.38
2022-10-14T14:59:35.733Z,36.03
2022-10-14T15:02:10.500Z,39.95
2022-10-14T15:04:37.955Z,41.17
2022-10-14T15:07:24.090Z,41.60
2022-10-14T15:09:54.355Z,47.85
2022-10-14T15:12:26.372Z,44.47
2022-10-14T15:14:55.762Z,38.10
2022-10-14T15:17:39.552Z,46.08
2022-10-14T15:20:28.829Z,44.08
2022-10-14T15:22:55.711Z,46.65
2022-10-14T15:25:25.700Z,43.10
2022-10-14T15:28:00.607Z,42.53
2022-10-14T15:30:27.846Z,46.08
2022-10-14T15:33:17.079Z,54.22
2022-10-14T15:35:46.363Z,50.15
2022-10-14T15:38:18.389Z,47.63
2022-10-14T15:40:49.133Z,45.33
2022-10-14T15:43:18.431Z,51.33
2022-10-14T15:46:14.886Z,46.75
2022-10-14T15:48:50.995Z,47.50
2022-10-14T15:51:19.906Z,52.33
2022-10-14T15:53:47.718Z,53.22
2022-10-14T15:56:15.840Z,56.08
2022-10-14T15:58:42.756Z,70.43
2022-10-14T16:01:20.694Z,56.45
2022-10-14T16:03:55.150Z,60.67
2022-10-14T16:06:24.272Z,60.13
2022-10-14T16:08:51.606Z,65.93
2022-10-14T16:11:18.935Z,60.92
2022-10-14T16:13:45.869Z,66.05
2022-10-14T16:16:14.171Z,62.97
2022-10-14T16:18:41.042Z,63.47
2022-10-14T16:21:14.996Z,63.38
2022-10-14T16:23:42.782Z,74.38
2022-10-14T16:26:10.487Z,71.60
2022-10-14T16:28:37.842Z,72.07
2022-10-14T16:31:04.896Z,65.22
2022-10-14T16:33:32.614Z,70.82
2022-10-14T16:36:00.535Z,76.65
2022-10-14T16:38:28.297Z,82.28
2022-10-14T16:41:00.861Z,63.85
2022-10-14T16:43:30.692Z,69.93
2022-10-14T16:45:59.699Z,68.45
2022-10-14T16:48:28.011Z,66.60
2022-10-14T16:50:55.291Z,75.40
2022-10-14T16:53:43.123Z,74.70
2022-10-14T16:56:39.306Z,66.85
2022-10-14T16:59:08.221Z,64.15
2022-10-14T17:01:35.154Z,69.97
2022-10-14T17:04:02.061Z,67.20
2022-10-14T17:06:29.373Z,66.05
2022-10-14T17:08:56.271Z,79.15
2022-10-14T17:11:23.429Z,66.97
2022-10-14T17:13:54.368Z,71.95
2022-10-14T17:16:21.920Z,70.82
2022-10-14T17:21:21.393Z,73.80
2022-10-14T17:23:49.417Z,79.63
2022-10-14T17:26:18.998Z,69.60
2022-10-14T17:28:47.559Z,70.28
2022-10-14T17:31:20.198Z,74.40
2022-10-14T17:33:47.581Z,72.78
2022-10-14T17:36:20.167Z,77.10
2022-10-14T17:38:48.657Z,70.70
2022-10-14T17:41:16.018Z,75.47
2022-10-14T17:43:43.260Z,74.35
2022-10-14T17:46:12.181Z,272.30
2022-10-14T17:48:42.347Z,83.95
2022-10-14T17:51:13.124Z,71.45
2022-10-14T17:53:40.486Z,68.60
2022-10-14T17:56:12.727Z,78.90
2022-10-14T17:58:40.236Z,114.33
2022-10-14T18:01:12.759Z,95.25
2022-10-14T18:03:42.499Z,75.32
2022-10-14T18:06:13.932Z,76.00
2022-10-14T18:08:42.681Z,91.22
2022-10-14T18:11:11.361Z,83.78
2022-10-14T18:16:13.275Z,83.70
2022-10-14T18:18:43.189Z,80.28
2022-10-14T18:21:10.426Z,91.30
2022-10-14T18:23:39.787Z,78.45
2022-10-14T18:26:10.903Z,87.95
2022-10-14T18:28:42.893Z,81.35
2022-10-14T18:31:15.079Z,84.90
2022-10-14T18:33:43.561Z,82.35
2022-10-14T18:36:13.140Z,89.53
2022-10-14T18:38:41.079Z,91.88
2022-10-14T18:41:13.978Z,104.10
2022-10-14T18:43:41.290Z,85.53
2022-10-14T18:46:15.191Z,100.57
2022-10-14T18:48:43.673Z,92.85
2022-10-14T18:51:12.101Z,85.03
2022-10-14T18:53:40.924Z,82.25
2022-10-14T18:56:15.472Z,78.60
2022-10-14T18:58:44.248Z,95.90
2022-10-14T19:01:12.513Z,82.43
2022-10-14T19:03:40.035Z,84.82
2022-10-14T19:06:08.980Z,74.95
2022-10-14T19:08:37.884Z,79.60
2022-10-14T19:11:11.946Z,92.18
2022-10-14T19:13:42.403Z,101.88
2022-10-14T19:16:15.227Z,81.57
2022-10-14T19:18:42.076Z,109.85
2022-10-14T19:21:11.372Z,127.38
2022-10-14T19:23:40.310Z,146.32
2022-10-14T19:26:09.629Z,95.28
2022-10-14T19:28:36.674Z,84.40
2022-10-14T19:31:12.349Z,77.90
2022-10-14T19:33:40.917Z,84.65
2022-10-14T19:36:08.391Z,83.22
2022-10-14T19:38:37.823Z,87.80
2022-10-14T19:41:07.649Z,87.18
2022-10-14T19:43:35.388Z,83.57
2022-10-14T19:46:07.413Z,82.50
2022-10-14T19:48:34.463Z,80.65
2022-10-14T19:51:06.157Z,90.13
2022-10-14T19:53:34.085Z,81.90
2022-10-14T19:56:12.668Z,84.72
2022-10-14T19:58:44.635Z,85.53
2022-10-14T20:01:17.528Z,83.97
2022-10-14T20:03:44.991Z,84.93
2022-10-14T20:06:13.430Z,92.15
2022-10-14T20:08:41.214Z,94.35
2022-10-14T20:11:10.780Z,88.13
2022-10-14T20:13:38.276Z,90.53
2022-10-14T20:16:08.419Z,90.47
2022-10-14T20:18:35.864Z,91.30
2022-10-14T20:21:04.264Z,89.85
2022-10-14T20:23:34.435Z,92.57
2022-10-14T20:26:11.359Z,85.70
2022-10-14T20:28:39.043Z,86.10
2022-10-14T20:31:20.358Z,90.35
2022-10-14T20:33:50.355Z,86.57
2022-10-14T20:36:21.693Z,89.20
2022-10-14T20:38:49.830Z,84.45
2022-10-14T20:41:22.567Z,84.28
2022-10-14T20:43:50.150Z,75.90
2022-10-14T20:46:17.686Z,85.72
2022-10-14T20:48:45.321Z,76.95
2022-10-14T20:51:15.363Z,83.45
2022-10-14T20:53:44.566Z,85.90
2022-10-14T20:56:15.073Z,76.40
2022-10-14T20:58:42.644Z,75.47
2022-10-14T21:01:09.594Z,75.55
2022-10-14T21:03:39.052Z,77.40
2022-10-14T21:06:09.668Z,105.07
2022-10-14T21:08:36.839Z,83.78
2022-10-14T21:11:14.992Z,70.75
2022-10-14T21:13:45.199Z,65.65
2022-10-14T21:16:20.523Z,65.28
2022-10-14T21:19:01.004Z,68.45
2022-10-14T21:21:30.112Z,61.70
2022-10-14T21:24:01.296Z,67.95
2022-10-14T21:26:29.814Z,65.00
2022-10-14T21:28:56.874Z,59.92
2022-10-14T21:31:24.758Z,54.92
2022-10-14T21:34:05.347Z,59.42
2022-10-14T21:36:36.938Z,52.72
2022-10-14T21:39:12.270Z,59.00
2022-10-14T21:41:45.460Z,60.33
2022-10-14T21:46:43.796Z,52.85
2022-10-14T21:49:11.426Z,51.42
2022-10-14T21:51:39.032Z,47.40
2022-10-14T21:54:07.067Z,49.63
2022-10-14T21:56:33.916Z,53.80
2022-10-14T21:59:00.741Z,42.03
2022-10-14T22:01:29.724Z,49.60
2022-10-14T22:03:57.994Z,44.83
2022-10-14T22:06:25.720Z,46.83
2022-10-14T22:08:55.394Z,38.70
2022-10-14T22:11:25.515Z,41.53
2022-10-14T22:13:54.044Z,40.63
2022-10-14T22:16:21.345Z,40.80
2022-10-14T22:18:50.718Z,36.38
2022-10-14T22:21:20.737Z,38.95
2022-10-14T22:23:48.742Z,37.65
2022-10-14T22:26:22.586Z,36.30
2022-10-14T22:28:50.522Z,34.70
2022-10-14T22:31:20.713Z,34.72
2022-10-14T22:33:48.454Z,35.13
2022-10-14T22:36:23.554Z,156.82
2022-10-14T22:38:52.944Z,36.47
2022-10-14T22:41:20.852Z,36.50
2022-10-14T22:43:50.094Z,36.05
2022-10-14T22:46:22.153Z,38.30
2022-10-14T22:48:50.103Z,37.45
2022-10-14T22:51:20.221Z,34.17
2022-10-14T22:53:47.507Z,37.58
2022-10-14T22:56:23.008Z,32.22
2022-10-14T22:59:07.993Z,36.80
2022-10-14T23:01:36.089Z,34.88
2022-10-14T23:04:03.577Z,35.97
2022-10-14T23:06:34.130Z,34.08
2022-10-14T23:09:01.456Z,33.47
2022-10-14T23:11:30.625Z,31.73
2022-10-14T23:14:00.196Z,41.42
2022-10-14T23:16:29.855Z,29.30
2022-10-14T23:18:59.112Z,30.83
2022-10-14T23:21:31.941Z,33.53
2022-10-14T23:24:01.543Z,30.35
2022-10-14T23:26:31.822Z,32.58
2022-10-14T23:29:00.004Z,32.83
2022-10-14T23:31:32.457Z,26.38
2022-10-14T23:34:05.018Z,26.08
2022-10-14T23:36:32.299Z,26.95
2022-10-14T23:38:59.603Z,25.08
2022-10-14T23:41:26.697Z,29.15
2022-10-14T23:43:54.229Z,22.63
2022-10-14T23:46:21.180Z,26.25
2022-10-14T23:48:55.808Z,26.25
2022-10-14T23:51:34.925Z,22.63
2022-10-14T23:54:01.826Z,23.85
2022-10-14T23:56:28.717Z,23.08
2022-10-14T23:58:55.626Z,24.40
